sensor_id;sensor_type;location;lat;lon;timestamp;P1;durP1;ratioP1;P2;durP2;ratioP2
29854;SDS011;16733;48.738;9.106;2022-12-18T00:01:44;31.02;;;14.68;;
29854;SDS011;16733;48.738;9.106;2022-12-18T00:04:19;25.92;;;11.80;;
29854;SDS011;16733;48.738;9.106;2022-12-18T00:06:46;26.90;;;14.30;;
29854;SDS011;16733;48.738;9.106;2022-12-18T00:09:12;31.77;;;13.65;;
29854;SDS011;16733;48.738;9.106;2022-12-18T00:11:38;29.70;;;12.35;;
29854;SDS011;16733;48.738;9.106;2022-12-18T00:14:03;34.47;;;14.32;;
29854;SDS011;16733;48.738;9.106;2022-12-18T00:16:29;30.92;;;13.45;;
29854;SDS011;16733;48.738;9.106;2022-12-18T00:18:58;31.65;;;13.77;;
29854;SDS011;16733;48.738;9.106;2022-12-18T00:21:24;20.73;;;10.25;;
29854;SDS011;16733;48.738;9.106;2022-12-18T00:23:51;22.30;;;11.02;;
29854;SDS011;16733;48.738;9.106;2022-12-18T00:26:17;35.33;;;12.40;;
29854;SDS011;16733;48.738;9.106;2022-12-18T00:28:47;23.55;;;12.25;;
29854;SDS011;16733;48.738;9.106;2022-12-18T00:31:18;27.67;;;12.07;;
29854;SDS011;16733;48.738;9.106;2022-12-18T00:33:46;25.20;;;12.60;;
29854;SDS011;16733;48.738;9.106;2022-12-18T00:36:13;25.42;;;10.88;;
29854;SDS011;16733;48.738;9.106;2022-12-18T00:38:41;21.40;;;12.45;;
29854;SDS011;16733;48.738;9.106;2022-12-18T00:41:08;34.70;;;12.43;;
29854;SDS011;16733;48.738;9.106;2022-12-18T00:43:36;33.45;;;12.95;;
29854;SDS011;16733;48.738;9.106;2022-12-18T00:46:02;34.20;;;14.98;;
29854;SDS011;16733;48.738;9.106;2022-12-18T00:48:28;32.33;;;13.70;;
29854;SDS011;16733;48.738;9.106;2022-12-18T00:50:53;26.88;;;12.63;;
29854;SDS011;16733;48.738;9.106;2022-12-18T00:53:19;28.67;;;12.10;;
29854;SDS011;16733;48.738;9.106;2022-12-18T00:55:45;24.80;;;11.60;;
29854;SDS011;16733;48.738;9.106;2022-12-18T00:58:11;30.90;;;13.85;;
29854;SDS011;16733;48.738;9.106;2022-12-18T01:00:38;25.83;;;13.25;;
29854;SDS011;16733;48.738;9.106;2022-12-18T01:03:04;28.83;;;12.55;;
29854;SDS011;16733;48.738;9.106;2022-12-18T01:05:30;26.50;;;12.55;;
29854;SDS011;16733;48.738;9.106;2022-12-18T01:07:56;30.00;;;11.02;;
29854;SDS011;16733;48.738;9.106;2022-12-18T01:10:22;24.60;;;11.73;;
29854;SDS011;16733;48.738;9.106;2022-12-18T01:12:48;26.77;;;13.02;;
29854;SDS011;16733;48.738;9.106;2022-12-18T01:15:14;29.95;;;11.60;;
29854;SDS011;16733;48.738;9.106;2022-12-18T01:17:40;22.95;;;10.73;;
29854;SDS011;16733;48.738;9.106;2022-12-18T01:20:06;28.65;;;12.73;;
29854;SDS011;16733;48.738;9.106;2022-12-18T01:22:33;30.17;;;12.23;;
29854;SDS011;16733;48.738;9.106;2022-12-18T01:24:59;24.13;;;12.07;;
29854;SDS011;16733;48.738;9.106;2022-12-18T01:27:25;31.25;;;13.15;;
29854;SDS011;16733;48.738;9.106;2022-12-18T01:29:50;26.45;;;11.63;;
29854;SDS011;16733;48.738;9.106;2022-12-18T01:32:16;25.05;;;10.77;;
29854;SDS011;16733;48.738;9.106;2022-12-18T01:34:42;25.00;;;12.07;;
29854;SDS011;16733;48.738;9.106;2022-12-18T01:37:07;25.70;;;10.70;;
29854;SDS011;16733;48.738;9.106;2022-12-18T01:39:33;23.90;;;11.32;;
29854;SDS011;16733;48.738;9.106;2022-12-18T01:41:59;31.08;;;12.13;;
29854;SDS011;16733;48.738;9.106;2022-12-18T01:50:19;27.42;;;11.07;;
29854;SDS011;16733;48.738;9.106;2022-12-18T01:52:54;23.75;;;10.57;;
29854;SDS011;16733;48.738;9.106;2022-12-18T01:55:22;24.52;;;10.93;;
29854;SDS011;16733;48.738;9.106;2022-12-18T01:57:52;29.25;;;12.25;;
29854;SDS011;16733;48.738;9.106;2022-12-18T02:00:20;25.50;;;11.35;;
29854;SDS011;16733;48.738;9.106;2022-12-18T02:02:47;26.80;;;10.52;;
29854;SDS011;16733;48.738;9.106;2022-12-18T02:16:24;20.00;;;9.85;;
29854;SDS011;16733;48.738;9.106;2022-12-18T02:19:16;19.17;;;9.50;;
29854;SDS011;16733;48.738;9.106;2022-12-18T02:21:49;19.67;;;9.95;;
29854;SDS011;16733;48.738;9.106;2022-12-18T02:24:42;32.78;;;12.55;;
29854;SDS011;16733;48.738;9.106;2022-12-18T02:27:19;27.98;;;10.60;;
29854;SDS011;16733;48.738;9.106;2022-12-18T02:29:50;22.42;;;9.70;;
29854;SDS011;16733;48.738;9.106;2022-12-18T02:32:31;26.20;;;11.32;;
29854;SDS011;16733;48.738;9.106;2022-12-18T02:35:03;27.30;;;12.68;;
29854;SDS011;16733;48.738;9.106;2022-12-18T02:37:32;29.17;;;11.65;;
29854;SDS011;16733;48.738;9.106;2022-12-18T02:40:00;28.20;;;11.45;;
29854;SDS011;16733;48.738;9.106;2022-12-18T02:42:31;27.95;;;10.82;;
29854;SDS011;16733;48.738;9.106;2022-12-18T02:44:57;24.40;;;10.80;;
29854;SDS011;16733;48.738;9.106;2022-12-18T02:47:24;25.63;;;11.55;;
29854;SDS011;16733;48.738;9.106;2022-12-18T02:55:12;20.05;;;10.75;;
29854;SDS011;16733;48.738;9.106;2022-12-18T02:57:54;28.30;;;10.82;;
29854;SDS011;16733;48.738;9.106;2022-12-18T03:00:34;25.98;;;10.65;;
29854;SDS011;16733;48.738;9.106;2022-12-18T03:03:34;16.10;;;8.07;;
29854;SDS011;16733;48.738;9.106;2022-12-18T03:06:21;13.57;;;8.05;;
29854;SDS011;16733;48.738;9.106;2022-12-18T03:08:53;16.33;;;9.25;;
29854;SDS011;16733;48.738;9.106;2022-12-18T03:11:23;15.05;;;7.55;;
29854;SDS011;16733;48.738;9.106;2022-12-18T03:14:11;20.63;;;9.15;;
29854;SDS011;16733;48.738;9.106;2022-12-18T03:16:40;21.13;;;9.80;;
29854;SDS011;16733;48.738;9.106;2022-12-18T03:19:08;14.07;;;7.65;;
29854;SDS011;16733;48.738;9.106;2022-12-18T03:21:49;19.52;;;8.38;;
29854;SDS011;16733;48.738;9.106;2022-12-18T03:24:20;13.60;;;7.78;;
29854;SDS011;16733;48.738;9.106;2022-12-18T03:26:48;23.92;;;8.77;;
29854;SDS011;16733;48.738;9.106;2022-12-18T03:29:23;14.73;;;7.65;;
29854;SDS011;16733;48.738;9.106;2022-12-18T03:31:54;24.70;;;8.63;;
29854;SDS011;16733;48.738;9.106;2022-12-18T03:34:28;15.57;;;6.75;;
29854;SDS011;16733;48.738;9.106;2022-12-18T03:36:56;21.98;;;9.10;;
29854;SDS011;16733;48.738;9.106;2022-12-18T03:39:23;14.15;;;6.20;;
29854;SDS011;16733;48.738;9.106;2022-12-18T03:41:55;14.45;;;7.07;;
29854;SDS011;16733;48.738;9.106;2022-12-18T03:47:39;20.80;;;9.68;;
29854;SDS011;16733;48.738;9.106;2022-12-18T03:53:12;18.33;;;8.20;;
29854;SDS011;16733;48.738;9.106;2022-12-18T03:55:47;16.38;;;8.65;;
29854;SDS011;16733;48.738;9.106;2022-12-18T03:58:15;17.05;;;8.73;;
29854;SDS011;16733;48.738;9.106;2022-12-18T04:00:44;16.48;;;8.05;;
29854;SDS011;16733;48.738;9.106;2022-12-18T04:03:12;14.00;;;8.32;;
29854;SDS011;16733;48.738;9.106;2022-12-18T04:05:40;29.63;;;10.85;;
29854;SDS011;16733;48.738;9.106;2022-12-18T04:08:08;21.88;;;8.98;;
29854;SDS011;16733;48.738;9.106;2022-12-18T04:10:34;14.10;;;7.65;;
29854;SDS011;16733;48.738;9.106;2022-12-18T04:12:59;17.70;;;8.75;;
29854;SDS011;16733;48.738;9.106;2022-12-18T04:15:25;16.75;;;8.48;;
29854;SDS011;16733;48.738;9.106;2022-12-18T04:17:51;25.60;;;10.05;;
29854;SDS011;16733;48.738;9.106;2022-12-18T04:20:16;19.63;;;8.50;;
29854;SDS011;16733;48.738;9.106;2022-12-18T04:22:42;15.13;;;7.63;;
29854;SDS011;16733;48.738;9.106;2022-12-18T04:25:11;16.70;;;7.28;;
29854;SDS011;16733;48.738;9.106;2022-12-18T04:27:37;22.80;;;8.82;;
29854;SDS011;16733;48.738;9.106;2022-12-18T04:30:03;15.38;;;7.05;;
29854;SDS011;16733;48.738;9.106;2022-12-18T04:32:29;17.98;;;6.82;;
29854;SDS011;16733;48.738;9.106;2022-12-18T04:34:55;14.43;;;6.47;;
29854;SDS011;16733;48.738;9.106;2022-12-18T04:37:21;12.95;;;7.00;;
29854;SDS011;16733;48.738;9.106;2022-12-18T04:39:47;13.82;;;6.55;;
29854;SDS011;16733;48.738;9.106;2022-12-18T04:42:12;22.23;;;7.40;;
29854;SDS011;16733;48.738;9.106;2022-12-18T04:44:38;13.23;;;6.63;;
29854;SDS011;16733;48.738;9.106;2022-12-18T04:47:03;18.73;;;7.63;;
29854;SDS011;16733;48.738;9.106;2022-12-18T04:49:29;14.27;;;6.88;;
29854;SDS011;16733;48.738;9.106;2022-12-18T04:51:54;20.77;;;6.32;;
29854;SDS011;16733;48.738;9.106;2022-12-18T04:54:20;13.70;;;7.95;;
29854;SDS011;16733;48.738;9.106;2022-12-18T04:56:45;16.35;;;7.72;;
29854;SDS011;16733;48.738;9.106;2022-12-18T04:59:11;23.30;;;8.30;;
29854;SDS011;16733;48.738;9.106;2022-12-18T05:01:37;18.77;;;6.85;;
29854;SDS011;16733;48.738;9.106;2022-12-18T05:04:02;12.85;;;7.22;;
29854;SDS011;16733;48.738;9.106;2022-12-18T05:06:28;19.92;;;8.02;;
29854;SDS011;16733;48.738;9.106;2022-12-18T05:08:54;17.23;;;7.93;;
29854;SDS011;16733;48.738;9.106;2022-12-18T05:11:20;10.13;;;4.80;;
29854;SDS011;16733;48.738;9.106;2022-12-18T05:13:45;17.63;;;7.07;;
29854;SDS011;16733;48.738;9.106;2022-12-18T05:16:11;15.55;;;6.63;;
29854;SDS011;16733;48.738;9.106;2022-12-18T05:18:38;11.13;;;6.60;;
29854;SDS011;16733;48.738;9.106;2022-12-18T05:21:03;15.50;;;7.40;;
29854;SDS011;16733;48.738;9.106;2022-12-18T05:23:32;18.60;;;7.40;;
29854;SDS011;16733;48.738;9.106;2022-12-18T05:25:59;16.90;;;6.93;;
29854;SDS011;16733;48.738;9.106;2022-12-18T05:28:26;11.38;;;6.22;;
29854;SDS011;16733;48.738;9.106;2022-12-18T05:30:54;8.05;;;5.00;;
29854;SDS011;16733;48.738;9.106;2022-12-18T05:33:22;9.07;;;6.25;;
29854;SDS011;16733;48.738;9.106;2022-12-18T05:35:50;15.73;;;6.68;;
29854;SDS011;16733;48.738;9.106;2022-12-18T05:38:20;11.40;;;5.88;;
29854;SDS011;16733;48.738;9.106;2022-12-18T05:40:47;13.05;;;6.65;;
29854;SDS011;16733;48.738;9.106;2022-12-18T05:43:13;14.25;;;7.53;;
29854;SDS011;16733;48.738;9.106;2022-12-18T05:45:39;11.68;;;7.68;;
29854;SDS011;16733;48.738;9.106;2022-12-18T05:48:05;12.90;;;6.32;;
29854;SDS011;16733;48.738;9.106;2022-12-18T05:50:38;16.67;;;7.35;;
29854;SDS011;16733;48.738;9.106;2022-12-18T05:53:05;15.73;;;7.25;;
29854;SDS011;16733;48.738;9.106;2022-12-18T05:55:34;8.38;;;4.28;;
29854;SDS011;16733;48.738;9.106;2022-12-18T05:58:00;16.27;;;8.13;;
29854;SDS011;16733;48.738;9.106;2022-12-18T06:00:27;11.85;;;5.47;;
29854;SDS011;16733;48.738;9.106;2022-12-18T06:02:53;15.35;;;8.30;;
29854;SDS011;16733;48.738;9.106;2022-12-18T06:05:18;22.92;;;9.30;;
29854;SDS011;16733;48.738;9.106;2022-12-18T06:07:44;24.23;;;8.80;;
29854;SDS011;16733;48.738;9.106;2022-12-18T06:10:10;18.73;;;7.70;;
29854;SDS011;16733;48.738;9.106;2022-12-18T06:12:36;13.38;;;7.43;;
29854;SDS011;16733;48.738;9.106;2022-12-18T06:15:02;10.95;;;6.63;;
29854;SDS011;16733;48.738;9.106;2022-12-18T06:17:31;14.23;;;7.55;;
29854;SDS011;16733;48.738;9.106;2022-12-18T06:19:57;13.43;;;6.45;;
29854;SDS011;16733;48.738;9.106;2022-12-18T06:22:23;16.65;;;7.22;;
29854;SDS011;16733;48.738;9.106;2022-12-18T06:24:49;22.00;;;7.88;;
29854;SDS011;16733;48.738;9.106;2022-12-18T06:27:15;15.85;;;7.15;;
29854;SDS011;16733;48.738;9.106;2022-12-18T06:29:41;17.58;;;8.13;;
29854;SDS011;16733;48.738;9.106;2022-12-18T06:32:06;10.88;;;6.03;;
29854;SDS011;16733;48.738;9.106;2022-12-18T06:34:32;13.50;;;6.88;;
29854;SDS011;16733;48.738;9.106;2022-12-18T06:36:58;14.68;;;7.35;;
29854;SDS011;16733;48.738;9.106;2022-12-18T06:39:24;12.57;;;7.45;;
29854;SDS011;16733;48.738;9.106;2022-12-18T06:41:51;9.48;;;6.53;;
29854;SDS011;16733;48.738;9.106;2022-12-18T06:44:17;25.65;;;7.47;;
29854;SDS011;16733;48.738;9.106;2022-12-18T06:46:43;12.93;;;6.35;;
29854;SDS011;16733;48.738;9.106;2022-12-18T06:49:08;18.92;;;7.97;;
29854;SDS011;16733;48.738;9.106;2022-12-18T06:51:34;19.60;;;8.20;;
29854;SDS011;16733;48.738;9.106;2022-12-18T06:54:00;20.80;;;7.88;;
29854;SDS011;16733;48.738;9.106;2022-12-18T06:56:26;15.82;;;7.97;;
29854;SDS011;16733;48.738;9.106;2022-12-18T06:58:52;13.25;;;7.28;;
29854;SDS011;16733;48.738;9.106;2022-12-18T07:01:17;14.65;;;8.70;;
29854;SDS011;16733;48.738;9.106;2022-12-18T07:03:43;14.73;;;6.75;;
29854;SDS011;16733;48.738;9.106;2022-12-18T07:06:13;18.48;;;5.82;;
29854;SDS011;16733;48.738;9.106;2022-12-18T07:08:41;14.23;;;6.07;;
29854;SDS011;16733;48.738;9.106;2022-12-18T07:11:07;14.63;;;6.70;;
29854;SDS011;16733;48.738;9.106;2022-12-18T07:13:32;13.18;;;7.82;;
29854;SDS011;16733;48.738;9.106;2022-12-18T07:16:11;13.20;;;7.65;;
29854;SDS011;16733;48.738;9.106;2022-12-18T07:18:38;14.52;;;7.90;;
29854;SDS011;16733;48.738;9.106;2022-12-18T07:21:05;15.55;;;7.70;;
29854;SDS011;16733;48.738;9.106;2022-12-18T07:23:32;17.27;;;9.63;;
29854;SDS011;16733;48.738;9.106;2022-12-18T07:26:06;19.73;;;8.10;;
29854;SDS011;16733;48.738;9.106;2022-12-18T07:28:34;19.17;;;8.30;;
29854;SDS011;16733;48.738;9.106;2022-12-18T07:31:03;22.00;;;6.97;;
29854;SDS011;16733;48.738;9.106;2022-12-18T07:33:31;18.23;;;7.65;;
29854;SDS011;16733;48.738;9.106;2022-12-18T07:35:58;24.23;;;9.40;;
29854;SDS011;16733;48.738;9.106;2022-12-18T07:38:24;14.45;;;7.38;;
29854;SDS011;16733;48.738;9.106;2022-12-18T07:40:50;27.30;;;6.82;;
29854;SDS011;16733;48.738;9.106;2022-12-18T07:43:16;15.70;;;7.97;;
29854;SDS011;16733;48.738;9.106;2022-12-18T07:45:42;13.25;;;5.97;;
29854;SDS011;16733;48.738;9.106;2022-12-18T07:48:07;16.30;;;7.80;;
29854;SDS011;16733;48.738;9.106;2022-12-18T07:50:33;20.52;;;7.95;;
29854;SDS011;16733;48.738;9.106;2022-12-18T07:52:59;15.52;;;7.80;;
29854;SDS011;16733;48.738;9.106;2022-12-18T07:55:28;17.38;;;7.43;;
29854;SDS011;16733;48.738;9.106;2022-12-18T07:57:54;17.27;;;7.50;;
29854;SDS011;16733;48.738;9.106;2022-12-18T08:00:20;24.08;;;8.88;;
29854;SDS011;16733;48.738;9.106;2022-12-18T08:02:46;15.30;;;9.02;;
29854;SDS011;16733;48.738;9.106;2022-12-18T08:05:11;15.32;;;6.15;;
29854;SDS011;16733;48.738;9.106;2022-12-18T08:07:38;17.05;;;7.43;;
29854;SDS011;16733;48.738;9.106;2022-12-18T08:10:04;18.73;;;8.70;;
29854;SDS011;16733;48.738;9.106;2022-12-18T08:12:30;19.30;;;8.52;;
29854;SDS011;16733;48.738;9.106;2022-12-18T08:14:56;26.52;;;8.32;;
29854;SDS011;16733;48.738;9.106;2022-12-18T08:17:21;23.40;;;9.25;;
29854;SDS011;16733;48.738;9.106;2022-12-18T08:19:47;16.20;;;7.50;;
29854;SDS011;16733;48.738;9.106;2022-12-18T08:22:12;12.07;;;6.15;;
29854;SDS011;16733;48.738;9.106;2022-12-18T08:24:38;15.75;;;7.85;;
29854;SDS011;16733;48.738;9.106;2022-12-18T08:27:03;18.33;;;8.15;;
29854;SDS011;16733;48.738;9.106;2022-12-18T08:29:29;19.17;;;9.63;;
29854;SDS011;16733;48.738;9.106;2022-12-18T08:31:55;26.27;;;11.48;;
29854;SDS011;16733;48.738;9.106;2022-12-18T08:34:21;17.73;;;8.63;;
29854;SDS011;16733;48.738;9.106;2022-12-18T08:36:46;20.48;;;8.02;;
29854;SDS011;16733;48.738;9.106;2022-12-18T08:39:12;16.02;;;6.57;;
29854;SDS011;16733;48.738;9.106;2022-12-18T08:41:37;22.85;;;8.98;;
29854;SDS011;16733;48.738;9.106;2022-12-18T08:44:03;16.30;;;7.13;;
29854;SDS011;16733;48.738;9.106;2022-12-18T08:46:47;19.83;;;8.95;;
29854;SDS011;16733;48.738;9.106;2022-12-18T08:49:13;19.88;;;8.90;;
29854;SDS011;16733;48.738;9.106;2022-12-18T08:51:39;21.48;;;8.18;;
29854;SDS011;16733;48.738;9.106;2022-12-18T08:54:05;22.38;;;9.20;;
29854;SDS011;16733;48.738;9.106;2022-12-18T08:56:31;24.38;;;8.75;;
29854;SDS011;16733;48.738;9.106;2022-12-18T08:58:57;20.52;;;8.93;;
29854;SDS011;16733;48.738;9.106;2022-12-18T09:01:23;18.42;;;8.48;;
29854;SDS011;16733;48.738;9.106;2022-12-18T09:03:49;22.85;;;8.65;;
29854;SDS011;16733;48.738;9.106;2022-12-18T09:06:16;27.38;;;9.23;;
29854;SDS011;16733;48.738;9.106;2022-12-18T09:08:43;17.13;;;7.60;;
29854;SDS011;16733;48.738;9.106;2022-12-18T09:11:13;18.85;;;8.48;;
29854;SDS011;16733;48.738;9.106;2022-12-18T09:13:40;20.73;;;9.88;;
29854;SDS011;16733;48.738;9.106;2022-12-18T09:16:06;26.67;;;10.25;;
29854;SDS011;16733;48.738;9.106;2022-12-18T09:18:31;23.33;;;9.30;;
29854;SDS011;16733;48.738;9.106;2022-12-18T09:20:57;23.90;;;9.07;;
29854;SDS011;16733;48.738;9.106;2022-12-18T09:23:23;20.38;;;9.75;;
29854;SDS011;16733;48.738;9.106;2022-12-18T09:25:48;25.17;;;9.70;;
29854;SDS011;16733;48.738;9.106;2022-12-18T09:28:15;24.48;;;10.27;;
29854;SDS011;16733;48.738;9.106;2022-12-18T09:30:43;24.30;;;9.73;;
29854;SDS011;16733;48.738;9.106;2022-12-18T09:33:11;24.40;;;9.82;;
29854;SDS011;16733;48.738;9.106;2022-12-18T09:35:38;22.48;;;7.97;;
29854;SDS011;16733;48.738;9.106;2022-12-18T09:38:06;21.20;;;8.68;;
29854;SDS011;16733;48.738;9.106;2022-12-18T09:40:39;22.25;;;9.35;;
29854;SDS011;16733;48.738;9.106;2022-12-18T09:43:16;28.95;;;9.90;;
29854;SDS011;16733;48.738;9.106;2022-12-18T09:45:57;22.13;;;9.35;;
29854;SDS011;16733;48.738;9.106;2022-12-18T09:48:28;25.50;;;9.93;;
29854;SDS011;16733;48.738;9.106;2022-12-18T09:51:11;26.27;;;10.20;;
29854;SDS011;16733;48.738;9.106;2022-12-18T09:53:45;21.85;;;9.45;;
29854;SDS011;16733;48.738;9.106;2022-12-18T09:56:16;29.58;;;10.20;;
29854;SDS011;16733;48.738;9.106;2022-12-18T10:01:28;26.40;;;10.80;;
29854;SDS011;16733;48.738;9.106;2022-12-18T10:03:55;31.50;;;11.20;;
29854;SDS011;16733;48.738;9.106;2022-12-18T10:12:30;33.38;;;12.43;;
29854;SDS011;16733;48.738;9.106;2022-12-18T10:15:10;25.10;;;11.57;;
29854;SDS011;16733;48.738;9.106;2022-12-18T10:20:42;22.83;;;9.70;;
29854;SDS011;16733;48.738;9.106;2022-12-18T10:23:28;30.63;;;9.35;;
29854;SDS011;16733;48.738;9.106;2022-12-18T10:26:22;20.50;;;9.38;;
29854;SDS011;16733;48.738;9.106;2022-12-18T10:28:48;23.10;;;9.30;;
29854;SDS011;16733;48.738;9.106;2022-12-18T10:31:17;29.15;;;10.88;;
29854;SDS011;16733;48.738;9.106;2022-12-18T10:33:46;31.92;;;10.05;;
29854;SDS011;16733;48.738;9.106;2022-12-18T10:36:11;29.83;;;11.07;;
29854;SDS011;16733;48.738;9.106;2022-12-18T10:38:37;30.55;;;11.52;;
29854;SDS011;16733;48.738;9.106;2022-12-18T10:41:04;30.45;;;11.25;;
29854;SDS011;16733;48.738;9.106;2022-12-18T10:48:33;25.42;;;10.93;;
29854;SDS011;16733;48.738;9.106;2022-12-18T10:50:59;29.00;;;11.32;;
29854;SDS011;16733;48.738;9.106;2022-12-18T10:53:26;36.15;;;11.80;;
29854;SDS011;16733;48.738;9.106;2022-12-18T10:55:57;27.05;;;11.73;;
29854;SDS011;16733;48.738;9.106;2022-12-18T10:58:25;33.63;;;11.93;;
29854;SDS011;16733;48.738;9.106;2022-12-18T11:06:08;30.45;;;12.15;;
29854;SDS011;16733;48.738;9.106;2022-12-18T11:08:39;33.67;;;11.35;;
29854;SDS011;16733;48.738;9.106;2022-12-18T11:11:15;37.35;;;12.45;;
29854;SDS011;16733;48.738;9.106;2022-12-18T11:14:03;33.55;;;12.45;;
29854;SDS011;16733;48.738;9.106;2022-12-18T11:16:32;30.25;;;12.45;;
29854;SDS011;16733;48.738;9.106;2022-12-18T11:21:46;32.50;;;11.88;;
29854;SDS011;16733;48.738;9.106;2022-12-18T11:24:30;31.35;;;12.85;;
29854;SDS011;16733;48.738;9.106;2022-12-18T11:27:00;31.20;;;11.10;;
29854;SDS011;16733;48.738;9.106;2022-12-18T11:29:37;32.25;;;11.45;;
29854;SDS011;16733;48.738;9.106;2022-12-18T11:32:13;28.92;;;11.60;;
29854;SDS011;16733;48.738;9.106;2022-12-18T11:37:54;39.85;;;13.30;;
29854;SDS011;16733;48.738;9.106;2022-12-18T11:40:35;32.33;;;11.13;;
29854;SDS011;16733;48.738;9.106;2022-12-18T11:43:06;29.88;;;11.68;;
29854;SDS011;16733;48.738;9.106;2022-12-18T11:45:43;37.88;;;12.48;;
29854;SDS011;16733;48.738;9.106;2022-12-18T11:48:31;33.30;;;11.63;;
29854;SDS011;16733;48.738;9.106;2022-12-18T11:51:03;27.33;;;11.35;;
29854;SDS011;16733;48.738;9.106;2022-12-18T11:53:35;34.38;;;13.40;;
29854;SDS011;16733;48.738;9.106;2022-12-18T12:04:45;35.92;;;12.95;;
29854;SDS011;16733;48.738;9.106;2022-12-18T12:18:28;39.67;;;13.75;;
29854;SDS011;16733;48.738;9.106;2022-12-18T12:23:49;31.67;;;12.77;;
29854;SDS011;16733;48.738;9.106;2022-12-18T12:31:46;36.72;;;13.70;;
29854;SDS011;16733;48.738;9.106;2022-12-18T12:34:30;38.30;;;14.23;;
29854;SDS011;16733;48.738;9.106;2022-12-18T12:37:09;35.88;;;12.63;;
29854;SDS011;16733;48.738;9.106;2022-12-18T12:39:55;36.55;;;13.32;;
29854;SDS011;16733;48.738;9.106;2022-12-18T12:45:44;41.70;;;14.43;;
29854;SDS011;16733;48.738;9.106;2022-12-18T12:51:10;33.28;;;13.88;;
29854;SDS011;16733;48.738;9.106;2022-12-18T12:53:46;33.85;;;14.00;;
29854;SDS011;16733;48.738;9.106;2022-12-18T12:56:14;38.65;;;13.15;;
29854;SDS011;16733;48.738;9.106;2022-12-18T13:04:36;38.47;;;14.18;;
29854;SDS011;16733;48.738;9.106;2022-12-18T13:07:17;36.00;;;13.48;;
29854;SDS011;16733;48.738;9.106;2022-12-18T13:12:56;38.38;;;13.45;;
29854;SDS011;16733;48.738;9.106;2022-12-18T13:17:48;31.48;;;13.27;;
29854;SDS011;16733;48.738;9.106;2022-12-18T13:20:14;39.58;;;14.38;;
29854;SDS011;16733;48.738;9.106;2022-12-18T13:22:44;41.78;;;15.15;;
29854;SDS011;16733;48.738;9.106;2022-12-18T13:25:29;35.70;;;13.48;;
29854;SDS011;16733;48.738;9.106;2022-12-18T13:41:22;39.50;;;14.57;;
29854;SDS011;16733;48.738;9.106;2022-12-18T13:43:54;40.78;;;17.30;;
29854;SDS011;16733;48.738;9.106;2022-12-18T13:46:26;43.00;;;14.45;;
29854;SDS011;16733;48.738;9.106;2022-12-18T13:51:19;38.38;;;15.93;;
29854;SDS011;16733;48.738;9.106;2022-12-18T13:56:47;40.03;;;15.88;;
29854;SDS011;16733;48.738;9.106;2022-12-18T13:59:21;39.05;;;15.35;;
29854;SDS011;16733;48.738;9.106;2022-12-18T14:06:45;35.17;;;12.75;;
29854;SDS011;16733;48.738;9.106;2022-12-18T14:09:16;36.20;;;13.43;;
29854;SDS011;16733;48.738;9.106;2022-12-18T14:11:46;30.65;;;11.73;;
29854;SDS011;16733;48.738;9.106;2022-12-18T14:14:16;37.97;;;12.95;;
29854;SDS011;16733;48.738;9.106;2022-12-18T14:16:43;41.53;;;14.25;;
29854;SDS011;16733;48.738;9.106;2022-12-18T14:19:14;36.45;;;12.38;;
29854;SDS011;16733;48.738;9.106;2022-12-18T14:21:45;35.00;;;12.60;;
29854;SDS011;16733;48.738;9.106;2022-12-18T14:26:39;29.13;;;12.40;;
29854;SDS011;16733;48.738;9.106;2022-12-18T14:29:22;31.05;;;13.15;;
29854;SDS011;16733;48.738;9.106;2022-12-18T14:32:05;39.67;;;14.20;;
29854;SDS011;16733;48.738;9.106;2022-12-18T14:34:46;40.47;;;14.07;;
29854;SDS011;16733;48.738;9.106;2022-12-18T14:37:23;30.33;;;12.73;;
29854;SDS011;16733;48.738;9.106;2022-12-18T14:40:01;38.42;;;13.30;;
29854;SDS011;16733;48.738;9.106;2022-12-18T14:42:30;32.47;;;12.32;;
29854;SDS011;16733;48.738;9.106;2022-12-18T14:47:59;40.72;;;14.45;;
29854;SDS011;16733;48.738;9.106;2022-12-18T14:50:25;44.05;;;13.90;;
29854;SDS011;16733;48.738;9.106;2022-12-18T14:52:51;37.55;;;14.85;;
29854;SDS011;16733;48.738;9.106;2022-12-18T14:55:17;36.20;;;14.60;;
29854;SDS011;16733;48.738;9.106;2022-12-18T14:57:44;38.75;;;14.68;;
29854;SDS011;16733;48.738;9.106;2022-12-18T15:00:20;39.30;;;15.45;;
29854;SDS011;16733;48.738;9.106;2022-12-18T15:02:55;41.63;;;14.75;;
29854;SDS011;16733;48.738;9.106;2022-12-18T15:05:29;39.70;;;14.00;;
29854;SDS011;16733;48.738;9.106;2022-12-18T15:07:57;38.95;;;13.88;;
29854;SDS011;16733;48.738;9.106;2022-12-18T15:10:25;36.08;;;13.60;;
29854;SDS011;16733;48.738;9.106;2022-12-18T15:18:03;36.35;;;13.40;;
29854;SDS011;16733;48.738;9.106;2022-12-18T15:20:52;33.80;;;12.90;;
29854;SDS011;16733;48.738;9.106;2022-12-18T15:23:25;31.20;;;12.15;;
29854;SDS011;16733;48.738;9.106;2022-12-18T15:25:58;34.72;;;13.23;;
29854;SDS011;16733;48.738;9.106;2022-12-18T15:31:29;30.58;;;12.30;;
29854;SDS011;16733;48.738;9.106;2022-12-18T15:36:46;39.33;;;13.85;;
29854;SDS011;16733;48.738;9.106;2022-12-18T15:39:12;41.85;;;13.77;;
29854;SDS011;16733;48.738;9.106;2022-12-18T15:41:38;27.88;;;12.68;;
29854;SDS011;16733;48.738;9.106;2022-12-18T15:44:16;39.30;;;14.02;;
29854;SDS011;16733;48.738;9.106;2022-12-18T15:46:48;37.42;;;13.77;;
29854;SDS011;16733;48.738;9.106;2022-12-18T15:49:14;44.28;;;13.50;;
29854;SDS011;16733;48.738;9.106;2022-12-18T15:51:39;45.38;;;14.98;;
29854;SDS011;16733;48.738;9.106;2022-12-18T15:54:06;35.83;;;14.15;;
29854;SDS011;16733;48.738;9.106;2022-12-18T15:56:36;44.15;;;14.80;;
29854;SDS011;16733;48.738;9.106;2022-12-18T15:59:20;44.05;;;15.57;;
29854;SDS011;16733;48.738;9.106;2022-12-18T16:01:47;46.40;;;15.45;;
29854;SDS011;16733;48.738;9.106;2022-12-18T16:04:14;44.17;;;15.20;;
29854;SDS011;16733;48.738;9.106;2022-12-18T16:06:42;38.60;;;14.68;;
29854;SDS011;16733;48.738;9.106;2022-12-18T16:09:08;33.05;;;13.23;;
29854;SDS011;16733;48.738;9.106;2022-12-18T16:11:34;36.78;;;14.52;;
29854;SDS011;16733;48.738;9.106;2022-12-18T16:14:12;42.53;;;15.07;;
29854;SDS011;16733;48.738;9.106;2022-12-18T16:16:55;38.92;;;13.73;;
29854;SDS011;16733;48.738;9.106;2022-12-18T16:19:25;39.72;;;13.35;;
29854;SDS011;16733;48.738;9.106;2022-12-18T16:21:52;38.25;;;13.75;;
29854;SDS011;16733;48.738;9.106;2022-12-18T16:24:26;40.50;;;13.85;;
29854;SDS011;16733;48.738;9.106;2022-12-18T16:26:55;40.70;;;15.55;;
29854;SDS011;16733;48.738;9.106;2022-12-18T16:29:23;38.90;;;13.70;;
29854;SDS011;16733;48.738;9.106;2022-12-18T16:31:52;34.28;;;12.88;;
29854;SDS011;16733;48.738;9.106;2022-12-18T16:34:19;36.55;;;16.30;;
29854;SDS011;16733;48.738;9.106;2022-12-18T16:36:52;41.03;;;15.07;;
29854;SDS011;16733;48.738;9.106;2022-12-18T16:39:18;45.88;;;14.10;;
29854;SDS011;16733;48.738;9.106;2022-12-18T16:41:44;37.50;;;13.15;;
29854;SDS011;16733;48.738;9.106;2022-12-18T16:44:10;37.40;;;14.38;;
29854;SDS011;16733;48.738;9.106;2022-12-18T16:46:36;37.28;;;13.52;;
29854;SDS011;16733;48.738;9.106;2022-12-18T16:49:03;38.58;;;14.25;;
29854;SDS011;16733;48.738;9.106;2022-12-18T16:51:30;39.20;;;14.27;;
29854;SDS011;16733;48.738;9.106;2022-12-18T16:53:55;35.00;;;14.38;;
29854;SDS011;16733;48.738;9.106;2022-12-18T16:56:21;32.88;;;13.32;;
29854;SDS011;16733;48.738;9.106;2022-12-18T16:58:57;34.90;;;12.35;;
29854;SDS011;16733;48.738;9.106;2022-12-18T17:01:24;32.78;;;13.35;;
29854;SDS011;16733;48.738;9.106;2022-12-18T17:03:54;41.45;;;13.85;;